GMMW

Nador International Airport

Nador, Morocco
METAR GMMW 251400Z 03011KT 9999 FEW023 28/19 Q1020 NOSIG
Observed Flight Rules
Sep-25 @ 14:00 UTC (an hour ago) Visual Flight Rules
Wind Visibility Clouds
30° at 11 knots 10,000+ meters
  • Few at 2,300' AGL
Temperatures Readings
Current 28°C / 82°F
Dewpoint 19°C / 66°F
Humidity 58%
Altimeter 30.12" Hg
Pressure 1020 hPa
Elevation 175
METAR GMMW 251400Z 03011KT 9999 FEW023 28/19 Q1020 NOSIG
Observed Flight Rules
Sep-25 @ 14:00 UTC
(an hour ago)
VFR
Wind Visibility
30° at 11 knots 10,000+ meters
Clouds
  • Few at 2,300' AGL
Temperature Dewpoint
28°C / 82°F 19°C / 66°F
Humidity Altimeter Pressure
58% 30.12" Hg 1020 hPa